aviador You're here:

UUEE Decoded Metar

MOSCOW/SHEREMETYEVO in RUSSIA
Report Time2018-05-28 09:30:00
UTC Time2018-05-28 09:42:03
Flight Rules vfr VFR
Wind340° at 12 kt
W.Decomp.*RWY 25: 2.1 kt HW 11.8 kt RCW
W.Rank340° ranks 22
Current wind is above 340° avg. (7.9)
Visibility9999 m
Phenomena:N/A
Clouds:N/A
Expected CloudBase > 6,400 ft AGL from Temp-Dew spread
CeilingNone
Temp16°C (ISA +2)
Dew Point00°C (34% RH)
AAT9.7°C
QNH1030 hPa
Density Alt404 ft
Elevation623 ft
Report Wrong Elevation
Raw Report
METAR UUEE 280930Z 34006MPS CAVOK 16/00 Q1030 R06C/CLRD62 R06R/CLRD62
NOSIG=

Extra information for UUEE:More info

Metar Taf Metar & Taf Last 4 Metars F.Rules Stats Wind Profile Meteogram Temp Stats Airport Information Weather charts Add Link Nearby VenuesMetar ALERT Operation Metar Decoded Social comments